Time;durP1;ratioP1;P1;durP2;ratioP2;P2;SDS_P1;SDS_P2;PMS_P1;PMS_P2;Temp;Humidity;BMP_temperature;BMP_pressure;BME280_temperature;BME280_humidity;BME280_pressure;Samples;Min_cycle;Max_cycle;Signal;HPM_P1;HPM_P2
2021/12/30 00:00:33;;;;;;;2.63;1.20;;;;;;;;;;5052222;28;20568;-74
2021/12/30 00:03:00;;;;;;;4.68;1.25;;;15.70;63.60;;;;;;5052359;28;20466;-75
2021/12/30 00:05:28;;;;;;;2.47;1.23;;;15.60;56.70;;;;;;5051964;28;20079;-74
2021/12/30 00:07:56;;;;;;;2.05;1.00;;;;;;;;;;5051807;28;20092;-74
2021/12/30 00:10:22;;;;;;;2.40;1.52;;;15.70;63.50;;;;;;5050057;28;20080;-75
2021/12/30 00:12:50;;;;;;;3.10;1.48;;;15.80;63.50;;;;;;5052123;28;20075;-75
2021/12/30 00:15:17;;;;;;;4.13;1.52;;;15.70;63.70;;;;;;5051991;28;20087;-74
2021/12/30 00:17:44;;;;;;;1.83;1.02;;;15.20;61.80;;;;;;5051284;28;20056;-74
2021/12/30 00:20:12;;;;;;;2.63;1.23;;;15.80;63.60;;;;;;5051960;28;20506;-75
2021/12/30 00:22:41;;;;;;;3.33;1.10;;;15.90;63.50;;;;;;5052040;28;20140;-74
2021/12/30 00:25:09;;;;;;;2.65;1.30;;;15.80;56.00;;;;;;5051549;28;20061;-74
2021/12/30 00:27:35;;;;;;;2.08;1.33;;;15.90;63.60;;;;;;5049618;28;20464;-75
2021/12/30 00:30:02;;;;;;;3.17;1.20;;;15.60;57.30;;;;;;5051716;28;20135;-74
2021/12/30 00:32:29;;;;;;;4.05;1.33;;;15.60;58.00;;;;;;5051758;28;20115;-74
2021/12/30 00:34:56;;;;;;;3.22;1.27;;;15.60;63.80;;;;;;5051139;28;20053;-75
2021/12/30 00:37:22;;;;;;;3.15;1.30;;;15.60;56.80;;;;;;5051309;28;20135;-74
2021/12/30 00:39:50;;;;;;;1.75;1.10;;;15.60;63.70;;;;;;5051657;28;20155;-74
2021/12/30 00:42:17;;;;;;;3.17;1.17;;;;;;;;;;5050328;28;20563;-74
2021/12/30 00:44:44;;;;;;;2.55;1.30;;;;;;;;;;5047876;28;20537;-73
2021/12/30 00:47:11;;;;;;;2.15;1.10;;;15.60;63.90;;;;;;5030949;28;20077;-75
2021/12/30 00:49:38;;;;;;;4.20;1.35;;;15.50;63.60;;;;;;5031455;28;20451;-74
2021/12/30 00:52:05;;;;;;;2.28;1.20;;;15.50;56.90;;;;;;5031370;28;20132;-74
2021/12/30 00:54:32;;;;;;;3.63;1.60;;;;;;;;;;5031141;28;20132;-74
2021/12/30 00:57:00;;;;;;;3.95;1.40;;;15.50;57.30;;;;;;5030891;28;20080;-74
2021/12/30 00:59:27;;;;;;;4.40;1.50;;;15.60;62.90;;;;;;5032327;28;20052;-74
2021/12/30 01:01:54;;;;;;;2.78;1.30;;;15.40;63.90;;;;;;5031299;28;20141;-74
2021/12/30 01:04:21;;;;;;;3.38;1.13;;;15.60;64.10;;;;;;5031427;28;20168;-74
2021/12/30 01:06:48;;;;;;;3.70;1.33;;;15.50;63.80;;;;;;5030822;28;20049;-74
2021/12/30 01:09:15;;;;;;;3.03;1.23;;;15.50;63.80;;;;;;5031336;28;20132;-75
2021/12/30 01:11:41;;;;;;;4.05;1.30;;;15.50;62.30;;;;;;5030672;28;20136;-74
2021/12/30 01:14:16;;;;;;;3.25;1.25;;;15.50;64.20;;;;;;5031040;28;20061;-74
2021/12/30 01:16:46;;;;;;;4.20;1.27;;;;;;;;;;5032026;28;20487;-75
2021/12/30 01:19:23;;;;;;;3.28;1.27;;;;;;;;;;5031278;28;20061;-74
2021/12/30 01:21:52;;;;;;;3.33;1.30;;;15.30;64.10;;;;;;5031206;28;20513;-75
2021/12/30 01:24:18;;;;;;;3.40;1.50;;;15.50;64.20;;;;;;5030459;28;20060;-75
2021/12/30 01:26:45;;;;;;;3.15;1.40;;;15.20;63.60;;;;;;5030694;28;20072;-75
2021/12/30 01:29:13;;;;;;;3.60;1.40;;;15.30;59.50;;;;;;5030797;28;20136;-75
2021/12/30 01:31:40;;;;;;;2.78;1.30;;;14.90;59.10;;;;;;5030525;28;20091;-74
2021/12/30 01:34:07;;;;;;;3.95;1.33;;;;;;;;;;5031728;28;20141;-74
2021/12/30 01:36:34;;;;;;;3.33;1.50;;;;;;;;;;5030621;28;20057;-74
2021/12/30 01:39:01;;;;;;;2.10;1.25;;;15.40;64.00;;;;;;5030807;28;20533;-74
2021/12/30 01:41:28;;;;;;;3.60;1.65;;;;;;;;;;5030505;28;20060;-74
2021/12/30 01:43:55;;;;;;;3.88;1.80;;;14.90;64.00;;;;;;5030725;28;20136;-74
2021/12/30 01:46:23;;;;;;;3.55;1.40;;;15.30;64.20;;;;;;5032707;28;20135;-74
2021/12/30 01:48:50;;;;;;;3.33;1.60;;;15.30;64.00;;;;;;5034503;28;20678;-75
2021/12/30 01:51:17;;;;;;;6.50;1.98;;;15.30;64.20;;;;;;5035418;28;20486;-74
2021/12/30 01:53:43;;;;;;;3.80;1.40;;;15.40;64.10;;;;;;5034732;28;20136;-75
2021/12/30 01:56:10;;;;;;;4.30;1.40;;;;;;;;;;5034502;28;20136;-74
2021/12/30 01:58:37;;;;;;;4.10;1.60;;;15.20;64.30;;;;;;5034891;28;20530;-74
2021/12/30 02:01:04;;;;;;;4.72;1.70;;;15.10;64.20;;;;;;5034380;28;20145;-75
2021/12/30 02:03:32;;;;;;;3.10;1.50;;;15.30;64.10;;;;;;5034363;28;20080;-74
2021/12/30 02:05:59;;;;;;;3.67;1.30;;;14.90;64.10;;;;;;5034329;28;20132;-75
2021/12/30 02:08:26;;;;;;;3.22;1.40;;;;;;;;;;5035372;28;20125;-75
2021/12/30 02:10:53;;;;;;;5.20;1.40;;;14.60;59.90;;;;;;5034128;28;20529;-75
2021/12/30 02:13:21;;;;;;;4.53;1.60;;;14.60;63.80;;;;;;5034279;28;20140;-75
2021/12/30 02:15:49;;;;;;;3.08;1.40;;;15.30;64.20;;;;;;5034071;28;20065;-74
2021/12/30 02:18:15;;;;;;;4.35;1.42;;;15.20;64.30;;;;;;5034268;28;20129;-74
2021/12/30 02:20:48;;;;;;;5.47;1.55;;;15.20;64.40;;;;;;5034244;28;20081;-74
2021/12/30 02:23:16;;;;;;;3.80;1.70;;;15.20;59.90;;;;;;5035307;28;20056;-75
2021/12/30 02:25:43;;;;;;;3.58;1.35;;;;;;;;;;5033904;28;20684;-74
2021/12/30 02:28:11;;;;;;;4.82;1.77;;;15.20;56.30;;;;;;5033909;28;20049;-74
2021/12/30 02:30:38;;;;;;;2.70;1.30;;;15.00;60.10;;;;;;5033739;28;20084;-75
2021/12/30 02:33:05;;;;;;;3.47;1.40;;;15.30;64.30;;;;;;5033838;28;20650;-74
2021/12/30 02:35:32;;;;;;;4.57;1.50;;;15.30;63.10;;;;;;5033873;28;20087;-74
2021/12/30 02:38:01;;;;;;;4.20;1.77;;;15.20;56.30;;;;;;5033925;28;20608;-74
2021/12/30 02:40:28;;;;;;;4.63;1.60;;;15.20;57.00;;;;;;5034869;28;20140;-74
2021/12/30 02:42:55;;;;;;;4.07;1.50;;;15.30;64.20;;;;;;5033627;28;20088;-74
2021/12/30 02:45:22;;;;;;;2.80;1.48;;;14.80;64.00;;;;;;5033631;28;20136;-74
2021/12/30 02:47:49;;;;;;;4.55;1.48;;;;;;;;;;5033475;28;20396;-74
2021/12/30 02:50:16;;;;;;;3.10;1.45;;;;;;;;;;5033557;28;20084;-74
2021/12/30 02:52:43;;;;;;;4.18;1.50;;;;;;;;;;5033934;28;20089;-74
2021/12/30 02:55:11;;;;;;;3.30;1.58;;;14.70;56.30;;;;;;5034637;28;20085;-74
2021/12/30 02:57:38;;;;;;;4.35;1.60;;;15.20;61.70;;;;;;5032809;28;20052;-74
2021/12/30 03:00:06;;;;;;;5.15;1.75;;;14.70;64.00;;;;;;5033505;28;20140;-74
2021/12/30 03:02:33;;;;;;;3.88;1.58;;;15.20;64.30;;;;;;5033586;28;20481;-74
2021/12/30 03:05:00;;;;;;;4.45;1.52;;;;;;;;;;5033149;28;20148;-73
2021/12/30 03:07:28;;;;;;;3.30;1.60;;;15.20;64.50;;;;;;5033033;28;20060;-74
2021/12/30 03:09:55;;;;;;;3.95;1.83;;;15.10;64.30;;;;;;5051955;28;20135;-75
2021/12/30 03:12:23;;;;;;;5.55;1.60;;;14.90;64.40;;;;;;5053335;28;20497;-75
2021/12/30 03:14:50;;;;;;;3.83;1.50;;;;;;;;;;5052975;28;20083;-75
2021/12/30 03:17:17;;;;;;;3.25;1.33;;;15.20;64.60;;;;;;5052676;28;20056;-74
2021/12/30 03:19:44;;;;;;;3.83;1.70;;;15.10;64.30;;;;;;5053030;28;20135;-75
2021/12/30 03:22:12;;;;;;;4.90;1.75;;;15.20;61.60;;;;;;5053181;28;20061;-74
2021/12/30 03:24:39;;;;;;;3.30;1.55;;;;;;;;;;5052619;28;20053;-74
2021/12/30 03:27:06;;;;;;;3.55;1.60;;;15.10;64.60;;;;;;5032647;28;20550;-74
2021/12/30 03:29:35;;;;;;;4.35;1.55;;;15.70;57.80;;;;;;5032728;28;20509;-75
2021/12/30 03:32:01;;;;;;;2.95;1.55;;;14.60;64.10;;;;;;5033228;28;20526;-74
2021/12/30 03:34:28;;;;;;;6.55;1.60;;;15.20;64.50;;;;;;5061203;28;20140;-75
2021/12/30 03:36:55;;;;;;;4.63;1.80;;;;;;;;;;5052358;28;20140;-74
2021/12/30 03:39:22;;;;;;;4.32;1.50;;;15.10;64.40;;;;;;5052209;28;20132;-75
2021/12/30 03:41:48;;;;;;;4.40;1.60;;;15.30;64.30;;;;;;5051380;28;20083;-75
2021/12/30 03:44:15;;;;;;;5.57;1.55;;;15.20;59.90;;;;;;5032849;28;20136;-74
2021/12/30 03:46:43;;;;;;;4.68;1.80;;;15.30;64.20;;;;;;5032453;28;20088;-74
2021/12/30 03:49:10;;;;;;;6.25;2.40;;;15.20;64.50;;;;;;5032031;28;20513;-74
2021/12/30 03:51:39;;;;;;;4.32;1.70;;;15.20;64.20;;;;;;5032526;28;20084;-75
2021/12/30 03:54:07;;;;;;;4.20;1.85;;;15.60;64.30;;;;;;5032649;28;20081;-75
2021/12/30 03:56:35;;;;;;;3.80;1.65;;;;;;;;;;5032350;28;20053;-75
2021/12/30 03:59:03;;;;;;;4.15;1.88;;;;;;;;;;5033133;28;20087;-74
2021/12/30 04:01:30;;;;;;;4.20;1.70;;;;;;;;;;5032336;28;20091;-74
2021/12/30 04:03:58;;;;;;;3.85;1.63;;;15.20;64.30;;;;;;5032500;28;20529;-75
2021/12/30 04:06:27;;;;;;;3.85;1.60;;;;;;;;;;5032112;28;20546;-74
2021/12/30 04:08:54;;;;;;;5.32;1.90;;;;;;;;;;5031319;28;20057;-73
2021/12/30 04:11:23;;;;;;;5.10;1.73;;;15.20;64.40;;;;;;5035198;28;20048;-74
2021/12/30 04:13:50;;;;;;;2.80;1.55;;;15.10;58.30;;;;;;5044053;28;20088;-74
2021/12/30 04:16:17;;;;;;;4.63;2.63;;;15.10;60.10;;;;;;5031841;28;20475;-74
2021/12/30 04:18:45;;;;;;;5.15;2.17;;;15.20;64.30;;;;;;5032067;28;20088;-75
2021/12/30 04:21:13;;;;;;;4.72;1.90;;;15.20;62.00;;;;;;5032122;28;20570;-74
2021/12/30 04:23:40;;;;;;;4.13;1.67;;;15.30;62.00;;;;;;5033032;28;20501;-74
2021/12/30 04:26:07;;;;;;;5.57;2.13;;;15.30;64.40;;;;;;5037336;28;20490;-74
2021/12/30 04:28:34;;;;;;;5.40;1.63;;;15.00;64.10;;;;;;5051518;28;20055;-75
2021/12/30 04:31:01;;;;;;;5.03;1.63;;;;;;;;;;5051429;28;20122;-75
2021/12/30 04:33:28;;;;;;;4.82;1.88;;;;;;;;;;5051682;28;20135;-74
2021/12/30 04:35:56;;;;;;;3.65;1.67;;;15.00;59.40;;;;;;5051476;28;20092;-74
2021/12/30 04:38:24;;;;;;;3.17;1.55;;;17.10;57.00;;;;;;5051557;28;20064;-74
2021/12/30 04:40:51;;;;;;;4.85;1.80;;;15.30;64.10;;;;;;5052544;28;20133;-74
2021/12/30 04:43:18;;;;;;;6.90;2.00;;;15.20;60.70;;;;;;5049779;28;20059;-74
2021/12/30 04:45:46;;;;;;;4.13;1.63;;;;;;;;;;5050990;28;20083;-74
2021/12/30 04:48:13;;;;;;;4.38;1.67;;;14.80;63.80;;;;;;5051039;28;20132;-74
2021/12/30 04:50:40;;;;;;;4.00;1.80;;;14.70;63.60;;;;;;5050845;28;20136;-74
2021/12/30 04:53:07;;;;;;;3.78;1.67;;;;;;;;;;5051454;28;20110;-75
2021/12/30 04:55:35;;;;;;;6.13;1.80;;;14.80;64.00;;;;;;5051270;28;20135;-74
2021/12/30 04:58:04;;;;;;;4.55;1.88;;;;;;;;;;5052390;28;20136;-75
2021/12/30 05:00:31;;;;;;;3.78;1.58;;;15.30;59.70;;;;;;5049276;28;20080;-74
2021/12/30 05:03:09;;;;;;;4.95;1.73;;;14.80;64.00;;;;;;5051219;28;20135;-74
2021/12/30 05:05:37;;;;;;;4.80;2.00;;;15.20;58.00;;;;;;5050719;28;20053;-74
2021/12/30 05:08:04;;;;;;;5.57;1.80;;;15.20;64.20;;;;;;5051180;28;20570;-74
2021/12/30 05:10:32;;;;;;;4.25;2.20;;;;;;;;;;5050881;28;20049;-74
2021/12/30 05:13:00;;;;;;;3.55;1.90;;;15.20;64.30;;;;;;5051166;28;20464;-74
2021/12/30 05:15:27;;;;;;;3.85;1.80;;;;;;;;;;5050757;28;20095;-74
2021/12/30 05:17:54;;;;;;;5.20;1.95;;;16.10;64.60;;;;;;5038587;28;20124;-75
2021/12/30 05:20:21;;;;;;;5.70;1.70;;;15.30;64.30;;;;;;5030829;28;20547;-74
2021/12/30 05:22:48;;;;;;;2.80;1.45;;;15.40;62.20;;;;;;5031009;28;20470;-74
2021/12/30 05:25:15;;;;;;;4.50;1.80;;;15.20;64.10;;;;;;5030663;28;20055;-74
2021/12/30 05:27:42;;;;;;;3.72;1.52;;;15.30;61.00;;;;;;5030648;28;20057;-74
2021/12/30 05:30:12;;;;;;;3.92;1.88;;;15.40;56.30;;;;;;5030822;28;20152;-74
2021/12/30 05:32:38;;;;;;;3.90;1.70;;;15.30;64.10;;;;;;5030542;28;20132;-74
2021/12/30 05:35:06;;;;;;;5.25;2.00;;;15.40;59.40;;;;;;5031884;28;20550;-74
2021/12/30 05:37:33;;;;;;;4.15;2.10;;;15.30;64.30;;;;;;5030410;28;20516;-74
2021/12/30 05:40:00;;;;;;;4.70;1.83;;;;;;;;;;5030392;28;20478;-75
2021/12/30 05:42:27;;;;;;;5.50;1.88;;;15.00;64.10;;;;;;5030667;28;20140;-74
2021/12/30 05:44:54;;;;;;;4.30;1.67;;;;;;;;;;5030641;28;20137;-74
2021/12/30 05:47:22;;;;;;;4.40;1.80;;;15.30;64.00;;;;;;5031339;28;20132;-75
2021/12/30 05:49:49;;;;;;;3.30;1.60;;;15.30;64.20;;;;;;5030183;28;20477;-74
2021/12/30 05:52:16;;;;;;;4.68;1.80;;;15.30;64.00;;;;;;5031760;28;20088;-74
2021/12/30 05:54:43;;;;;;;4.85;1.85;;;;;;;;;;5030712;28;20510;-74
2021/12/30 05:57:10;;;;;;;5.07;1.77;;;15.30;63.60;;;;;;5030148;28;20141;-74
2021/12/30 05:59:37;;;;;;;4.10;1.67;;;15.40;56.30;;;;;;5030606;28;20266;-74
2021/12/30 06:02:03;;;;;;;5.78;1.85;;;15.30;64.10;;;;;;5030323;28;20056;-73
2021/12/30 06:04:32;;;;;;;4.55;1.70;;;15.20;63.80;;;;;;5030718;28;20136;-74
2021/12/30 06:06:58;;;;;;;4.45;1.80;;;15.40;63.90;;;;;;5032797;28;20144;-74
2021/12/30 06:09:26;;;;;;;4.20;1.80;;;15.40;64.10;;;;;;5051244;28;20416;-74
2021/12/30 06:11:53;;;;;;;5.68;1.80;;;;;;;;;;5051284;28;20099;-75
2021/12/30 06:14:20;;;;;;;4.95;2.00;;;15.30;63.80;;;;;;5050367;28;20136;-74
2021/12/30 06:16:47;;;;;;;3.90;1.77;;;;;;;;;;5050202;28;20298;-74
2021/12/30 06:19:14;;;;;;;3.95;1.70;;;;;;;;;;5050378;28;20469;-74
2021/12/30 06:21:42;;;;;;;2.38;1.45;;;15.40;56.10;;;;;;5049837;28;20052;-74
2021/12/30 06:24:09;;;;;;;3.58;1.90;;;;;;;;;;5045943;28;20493;-74
2021/12/30 06:26:36;;;;;;;4.22;1.67;;;;;;;;;;5035972;28;20083;-74
2021/12/30 06:29:03;;;;;;;4.57;1.70;;;15.40;63.80;;;;;;5050040;28;20084;-74
2021/12/30 06:31:30;;;;;;;3.70;1.50;;;;;;;;;;5050987;28;20521;-74
2021/12/30 06:33:57;;;;;;;5.55;1.70;;;15.50;59.40;;;;;;5053907;28;20458;-73
2021/12/30 06:36:24;;;;;;;4.63;1.80;;;;;;;;;;5053622;28;20045;-75
2021/12/30 06:38:53;;;;;;;3.30;1.67;;;15.50;56.00;;;;;;5053864;28;20560;-75
2021/12/30 06:41:20;;;;;;;2.78;1.45;;;;;;;;;;5053026;28;20132;-74
2021/12/30 06:43:47;;;;;;;2.60;1.50;;;15.50;63.70;;;;;;5053789;28;20152;-74
2021/12/30 06:46:14;;;;;;;3.70;1.70;;;;;;;;;;5053016;28;20086;-74
2021/12/30 06:48:44;;;;;;;3.65;1.52;;;15.60;64.00;;;;;;5053635;28;20143;-74
2021/12/30 06:51:11;;;;;;;2.50;1.50;;;15.60;63.70;;;;;;5053660;28;20080;-74
2021/12/30 06:53:38;;;;;;;4.18;1.60;;;;;;;;;;5053562;28;20045;-74
2021/12/30 06:56:07;;;;;;;2.88;1.60;;;15.60;64.00;;;;;;5052443;28;20132;-70
2021/12/30 06:58:34;;;;;;;4.43;1.85;;;15.60;64.00;;;;;;5050572;28;20055;-70
2021/12/30 07:01:00;;;;;;;3.15;1.52;;;15.50;61.60;;;;;;5053893;28;20434;-70
2021/12/30 07:03:27;;;;;;;2.38;1.58;;;15.80;63.90;;;;;;5053375;28;20049;-70
2021/12/30 07:05:54;;;;;;;3.17;1.85;;;15.60;63.90;;;;;;5052519;28;20052;-70
2021/12/30 07:08:22;;;;;;;3.55;1.52;;;15.70;63.90;;;;;;5052726;28;20156;-70
2021/12/30 07:10:48;;;;;;;4.07;1.80;;;15.60;57.40;;;;;;5052611;28;20052;-70
2021/12/30 07:13:16;;;;;;;2.65;1.40;;;15.70;63.80;;;;;;5052850;28;20045;-70
2021/12/30 07:15:43;;;;;;;2.88;1.70;;;15.70;63.80;;;;;;5048382;28;20498;-70
2021/12/30 07:18:10;;;;;;;2.42;1.38;;;15.70;63.60;;;;;;5053945;28;20124;-70
2021/12/30 07:20:37;;;;;;;2.78;1.45;;;;;;;;;;5052834;28;20045;-70
2021/12/30 07:23:04;;;;;;;3.30;1.60;;;15.20;63.50;;;;;;5052861;28;20045;-70
2021/12/30 07:25:31;;;;;;;2.30;1.30;;;;;;;;;;5053382;28;20112;-70
2021/12/30 07:27:57;;;;;;;2.80;1.60;;;15.90;63.50;;;;;;5052733;28;20059;-70
2021/12/30 07:30:26;;;;;;;2.20;1.50;;;15.50;63.40;;;;;;5052958;28;20124;-72
2021/12/30 07:32:53;;;;;;;2.47;1.63;;;;;;;;;;5049966;28;20714;-72
2021/12/30 07:35:20;;;;;;;2.35;1.30;;;15.90;63.70;;;;;;5052665;28;20161;-71
2021/12/30 07:37:46;;;;;;;3.10;1.27;;;15.30;63.30;;;;;;5053501;28;20079;-70
2021/12/30 07:40:15;;;;;;;2.35;1.40;;;16.10;59.70;;;;;;5052289;28;20559;-72
2021/12/30 07:42:41;;;;;;;3.00;1.60;;;15.50;59.40;;;;;;5052606;28;20454;-72
2021/12/30 07:45:09;;;;;;;2.60;1.80;;;16.00;63.30;;;;;;5053207;28;20541;-72
2021/12/30 07:47:37;;;;;;;3.53;1.38;;;15.90;55.50;;;;;;5067242;28;20049;-72
2021/12/30 07:50:04;;;;;;;2.45;1.38;;;15.30;63.10;;;;;;5050782;28;20568;-72
2021/12/30 07:52:31;;;;;;;2.60;1.30;;;;;;;;;;5051217;28;20472;-73
2021/12/30 07:54:58;;;;;;;2.05;1.30;;;15.80;63.10;;;;;;5066159;28;20123;-72
2021/12/30 07:57:26;;;;;;;1.95;1.13;;;;;;;;;;5051893;28;20554;-73
2021/12/30 07:59:52;;;;;;;2.33;1.20;;;16.10;63.10;;;;;;5052363;28;20128;-72
2021/12/30 08:02:20;;;;;;;2.45;1.38;;;;;;;;;;5051926;28;20115;-76
2021/12/30 08:04:48;;;;;;;4.07;1.30;;;15.50;63.20;;;;;;5052584;28;20550;-74
2021/12/30 08:07:19;;;;;;;5.18;1.40;;;;;;;;;;5052208;28;20136;-74
2021/12/30 08:09:46;;;;;;;7.45;1.70;;;16.20;63.70;;;;;;5052070;28;20082;-77
2021/12/30 08:12:13;;;;;;;3.60;1.30;;;16.30;63.70;;;;;;5052619;28;20135;-74
2021/12/30 08:14:40;;;;;;;2.28;1.40;;;;;;;;;;5049538;28;20055;-75
2021/12/30 08:17:07;;;;;;;2.35;1.30;;;16.60;63.90;;;;;;5043804;28;20044;-74
2021/12/30 08:19:34;;;;;;;3.35;1.30;;;17.10;64.10;;;;;;5051940;28;20124;-75
2021/12/30 08:22:02;;;;;;;3.17;1.25;;;16.30;62.10;;;;;;5034729;28;20092;-74
2021/12/30 08:24:29;;;;;;;2.13;1.17;;;15.30;62.50;;;;;;5048662;28;20558;-73
2021/12/30 08:26:56;;;;;;;2.40;1.25;;;16.30;63.60;;;;;;5048526;28;20049;-75
2021/12/30 08:29:23;;;;;;;2.53;1.20;;;16.30;62.70;;;;;;5051800;28;20131;-74
2021/12/30 08:31:49;;;;;;;3.10;1.10;;;15.70;63.00;;;;;;5044550;28;20092;-74
2021/12/30 08:34:16;;;;;;;1.95;1.10;;;16.30;63.20;;;;;;5031982;28;20578;-75
2021/12/30 08:36:43;;;;;;;1.88;1.20;;;15.30;62.00;;;;;;5031410;28;20088;-75
2021/12/30 08:39:11;;;;;;;1.83;1.17;;;16.20;63.20;;;;;;5031523;28;20124;-75
2021/12/30 08:41:38;;;;;;;2.65;1.10;;;15.50;62.80;;;;;;5031662;28;20558;-74
2021/12/30 08:44:05;;;;;;;1.75;1.30;;;;;;;;;;5031727;28;20138;-73
2021/12/30 08:46:32;;;;;;;1.73;1.25;;;15.50;62.80;;;;;;5040483;28;20084;-73
2021/12/30 08:48:58;;;;;;;1.45;0.90;;;16.80;63.50;;;;;;5051403;28;20131;-73
2021/12/30 08:51:28;;;;;;;1.58;1.10;;;15.20;62.90;;;;;;5051439;28;20071;-75
2021/12/30 08:53:56;;;;;;;1.60;1.17;;;;;;;;;;5051154;28;20481;-75
2021/12/30 08:56:24;;;;;;;2.05;1.10;;;16.50;63.50;;;;;;5050501;28;20080;-75
2021/12/30 08:58:51;;;;;;;2.20;1.17;;;16.30;63.40;;;;;;5051485;28;20056;-75
2021/12/30 09:01:17;;;;;;;2.25;1.50;;;16.50;58.20;;;;;;5050996;28;20056;-75
2021/12/30 09:03:44;;;;;;;1.52;1.10;;;16.50;63.20;;;;;;5050642;28;20557;-75
2021/12/30 09:06:11;;;;;;;2.17;1.05;;;16.40;63.40;;;;;;5044237;28;20081;-75
2021/12/30 09:08:38;;;;;;;2.88;1.13;;;;;;;;;;5045238;28;20128;-73
2021/12/30 09:11:05;;;;;;;2.08;0.90;;;16.90;63.40;;;;;;5050650;28;20081;-73
2021/12/30 09:13:33;;;;;;;1.30;0.93;;;16.40;55.90;;;;;;5050846;28;20072;-74
2021/12/30 09:16:01;;;;;;;1.65;1.00;;;;;;;;;;5050686;28;20457;-74
2021/12/30 09:18:28;;;;;;;1.67;0.90;;;;;;;;;;5050880;28;20079;-73
2021/12/30 09:20:55;;;;;;;1.42;0.93;;;16.40;63.10;;;;;;5051181;28;20155;-75
2021/12/30 09:23:22;;;;;;;1.95;0.98;;;;;;;;;;5050971;28;20141;-75
2021/12/30 09:25:49;;;;;;;1.25;0.90;;;15.60;62.90;;;;;;5050636;28;20131;-75
2021/12/30 09:28:16;;;;;;;2.28;1.48;;;15.40;56.60;;;;;;5051028;28;20577;-75
2021/12/30 09:30:45;;;;;;;1.52;0.90;;;16.40;63.00;;;;;;5050707;28;20055;-75
2021/12/30 09:33:15;;;;;;;1.35;0.90;;;16.50;63.10;;;;;;5050717;28;20061;-74
2021/12/30 09:35:42;;;;;;;1.15;0.85;;;15.60;62.60;;;;;;5047032;28;20560;-75
2021/12/30 09:38:09;;;;;;;1.70;0.90;;;16.50;63.30;;;;;;5030627;28;20508;-74
2021/12/30 09:40:35;;;;;;;1.10;0.90;;;16.70;63.40;;;;;;5043431;28;20124;-74
2021/12/30 09:43:04;;;;;;;1.25;0.90;;;;;;;;;;5037242;28;20124;-74
2021/12/30 09:45:31;;;;;;;0.77;0.77;;;17.30;63.50;;;;;;5036719;28;20059;-74
2021/12/30 09:48:00;;;;;;;1.77;1.08;;;16.40;55.40;;;;;;5032390;28;20045;-74
2021/12/30 09:50:28;;;;;;;1.00;0.80;;;15.90;62.50;;;;;;5051612;28;20049;-73
2021/12/30 09:52:55;;;;;;;1.15;0.80;;;17.20;56.90;;;;;;5047661;28;20089;-73
2021/12/30 09:55:22;;;;;;;0.82;0.80;;;;;;;;;;5035456;28;20079;-73
2021/12/30 09:57:49;;;;;;;1.67;0.98;;;15.60;60.90;;;;;;5050717;28;20378;-73
2021/12/30 10:00:16;;;;;;;1.15;0.85;;;16.60;63.20;;;;;;5048955;28;20123;-73
2021/12/30 10:02:44;;;;;;;0.70;0.70;;;15.60;59.40;;;;;;5050478;28;20136;-73
2021/12/30 10:05:13;;;;;;;1.30;0.80;;;16.40;63.40;;;;;;5049294;28;20710;-76
2021/12/30 10:07:41;;;;;;;0.90;0.80;;;16.50;63.30;;;;;;5052693;28;20044;-73
2021/12/30 10:10:26;;;;;;;1.30;0.63;;;16.90;63.70;;;;;;5051455;28;20059;-72
2021/12/30 10:12:53;;;;;;;;;;;16.40;56.20;;;;;;5053044;28;20059;-73
2021/12/30 10:15:24;;;;;;;1.63;0.80;;;;;;;;;;5053420;28;19956;-73
2021/12/30 10:17:54;;;;;;;1.50;0.80;;;16.30;55.90;;;;;;5049547;28;20049;-73
2021/12/30 10:20:25;;;;;;;1.10;0.70;;;15.40;63.10;;;;;;5053883;28;20410;-73
2021/12/30 10:22:52;;;;;;;1.52;0.90;;;17.10;62.30;;;;;;5054370;28;20061;-73
2021/12/30 10:25:26;;;;;;;0.95;0.77;;;16.50;63.60;;;;;;5054248;28;20096;-73
2021/12/30 10:27:53;;;;;;;2.63;0.77;;;16.30;63.70;;;;;;5039210;28;20093;-73
2021/12/30 10:30:29;;;;;;;1.30;0.80;;;16.40;56.50;;;;;;5033893;28;20045;-73
2021/12/30 10:33:10;;;;;;;1.10;0.90;;;16.40;63.60;;;;;;5034116;28;20128;-73
2021/12/30 10:35:39;;;;;;;2.25;0.70;;;15.80;63.40;;;;;;5051106;28;20056;-73
2021/12/30 10:38:09;;;;;;;0.98;0.75;;;16.20;56.30;;;;;;5054104;28;20143;-72
2021/12/30 10:40:36;;;;;;;0.95;0.80;;;15.40;58.70;;;;;;5051529;28;20057;-73
2021/12/30 10:43:20;;;;;;;1.20;0.70;;;16.30;63.90;;;;;;5053448;28;20136;-73
2021/12/30 10:46:01;;;;;;;0.80;0.70;;;15.80;64.00;;;;;;5051683;28;20504;-73
2021/12/30 10:48:28;;;;;;;1.63;0.90;;;16.20;63.00;;;;;;5052080;28;20107;-73
2021/12/30 10:51:11;;;;;;;1.90;0.90;;;16.20;56.70;;;;;;5054232;28;20037;-73
2021/12/30 10:53:38;;;;;;;0.98;0.73;;;;;;;;;;5050686;28;20135;-73
2021/12/30 10:56:19;;;;;;;0.80;0.70;;;15.40;64.10;;;;;;5051621;28;20047;-73
2021/12/30 10:58:47;;;;;;;0.77;0.70;;;;;;;;;;5049371;28;20136;-72
2021/12/30 11:01:17;;;;;;;1.52;0.80;;;15.50;64.10;;;;;;5053237;28;20452;-73
2021/12/30 11:03:54;;;;;;;0.80;0.75;;;16.10;57.10;;;;;;5053516;28;20135;-72
2021/12/30 11:06:22;;;;;;;2.55;0.85;;;16.10;60.90;;;;;;5051655;28;20081;-73
2021/12/30 11:09:06;;;;;;;0.70;0.63;;;15.30;64.00;;;;;;5053558;28;20549;-73
2021/12/30 11:11:33;;;;;;;0.68;0.63;;;15.50;59.10;;;;;;5048030;28;20124;-73
2021/12/30 11:14:04;;;;;;;1.52;0.80;;;16.10;59.20;;;;;;5043247;28;20129;-73
2021/12/30 11:16:31;;;;;;;1.30;0.90;;;15.70;62.00;;;;;;5051325;28;20052;-73
2021/12/30 11:18:58;;;;;;;0.68;0.68;;;;;;;;;;5051124;28;20045;-73
2021/12/30 11:21:40;;;;;;;1.05;0.73;;;16.90;63.60;;;;;;5051002;28;20044;-72
2021/12/30 11:24:07;;;;;;;2.58;0.70;;;16.20;57.90;;;;;;5052496;28;20041;-73
2021/12/30 11:26:34;;;;;;;0.93;0.70;;;16.10;64.70;;;;;;5055928;28;20047;-75
2021/12/30 11:29:02;;;;;;;0.60;0.60;;;15.90;62.30;;;;;;5053921;28;20136;-73
2021/12/30 11:31:29;;;;;;;1.10;0.80;;;16.20;64.70;;;;;;5051343;28;20044;-73
2021/12/30 11:33:56;;;;;;;1.67;0.80;;;;;;;;;;5052022;28;20072;-73
2021/12/30 11:36:23;;;;;;;0.98;0.80;;;16.10;65.10;;;;;;5052408;28;20128;-74
2021/12/30 11:38:51;;;;;;;2.63;0.90;;;16.10;61.40;;;;;;5052262;28;20131;-74
2021/12/30 11:41:18;;;;;;;1.38;0.82;;;16.10;65.10;;;;;;5052316;28;20049;-72
2021/12/30 11:43:45;;;;;;;1.17;0.77;;;15.30;64.50;;;;;;5052701;28;20128;-73
2021/12/30 11:46:37;;;;;;;2.70;0.90;;;15.70;64.80;;;;;;5050963;28;20136;-72
2021/12/30 11:49:04;;;;;;;1.80;0.63;;;16.20;65.00;;;;;;5034846;28;20410;-72
2021/12/30 11:51:41;;;;;;;1.20;0.90;;;16.10;57.70;;;;;;5052457;28;20056;-72
2021/12/30 11:54:35;;;;;;;1.83;0.80;;;16.10;58.60;;;;;;5052448;28;20136;-72
2021/12/30 11:57:27;;;;;;;2.72;0.70;;;16.00;57.70;;;;;;5051953;28;20140;-72
2021/12/30 11:59:54;;;;;;;1.42;1.10;;;;;;;;;;5049196;28;20055;-73
2021/12/30 12:02:31;;;;;;;2.53;0.75;;;16.00;65.00;;;;;;5050592;28;20136;-73
2021/12/30 12:04:58;;;;;;;3.08;0.80;;;15.30;60.70;;;;;;5052103;28;20533;-72
2021/12/30 12:07:25;;;;;;;2.38;1.02;;;16.10;61.70;;;;;;5052468;28;20084;-73
2021/12/30 12:09:53;;;;;;;1.75;1.00;;;16.10;64.90;;;;;;5051448;28;20045;-73
2021/12/30 12:12:32;;;;;;;3.00;0.90;;;16.00;65.20;;;;;;5051979;28;20127;-73
2021/12/30 12:15:00;;;;;;;1.55;0.85;;;15.70;60.90;;;;;;5052382;28;20533;-73
2021/12/30 12:17:32;;;;;;;2.20;1.08;;;16.00;65.10;;;;;;5046583;28;20054;-72
2021/12/30 12:19:59;;;;;;;0.88;0.77;;;16.00;64.90;;;;;;5041953;28;20056;-72
2021/12/30 12:22:29;;;;;;;2.60;0.82;;;16.00;57.50;;;;;;5033790;28;20049;-71
2021/12/30 12:25:09;;;;;;;2.42;0.98;;;16.10;65.10;;;;;;5037131;28;20060;-73
2021/12/30 12:27:36;;;;;;;1.25;0.77;;;15.90;64.90;;;;;;5051259;28;20064;-73
2021/12/30 12:30:04;;;;;;;2.33;1.05;;;16.10;62.80;;;;;;5047115;28;20063;-73
2021/12/30 12:32:39;;;;;;;2.63;1.02;;;16.00;57.50;;;;;;5041927;28;20057;-72
2021/12/30 12:35:07;;;;;;;1.92;0.90;;;15.50;63.00;;;;;;5051818;28;20055;-72
2021/12/30 12:37:51;;;;;;;2.67;1.20;;;16.10;64.80;;;;;;5068727;28;20067;-72
2021/12/30 12:40:39;;;;;;;2.30;1.00;;;16.00;65.10;;;;;;5044603;28;20463;-72
2021/12/30 12:43:09;;;;;;;3.25;1.13;;;16.10;65.10;;;;;;5051475;28;20545;-73
2021/12/30 12:45:41;;;;;;;2.25;1.10;;;16.20;64.90;;;;;;5036920;28;20151;-76
2021/12/30 12:48:25;;;;;;;2.20;0.95;;;16.10;64.70;;;;;;5049183;28;20068;-74
2021/12/30 12:50:53;;;;;;;2.03;1.15;;;16.10;64.80;;;;;;5067971;28;20128;-74
2021/12/30 12:53:39;;;;;;;1.90;1.00;;;17.00;65.20;;;;;;5035619;28;20522;-73
2021/12/30 12:56:08;;;;;;;3.03;1.17;;;16.00;65.10;;;;;;5042527;28;20512;-74
2021/12/30 12:58:36;;;;;;;2.80;1.23;;;16.00;57.60;;;;;;5051248;28;20132;-73
2021/12/30 13:01:03;;;;;;;2.60;1.08;;;16.00;60.70;;;;;;5051009;28;20127;-72
2021/12/30 13:03:30;;;;;;;1.88;1.10;;;16.00;64.90;;;;;;5050877;28;20084;-73
2021/12/30 13:05:59;;;;;;;2.50;1.23;;;16.10;57.60;;;;;;5050556;28;20094;-73
2021/12/30 13:08:26;;;;;;;2.58;1.27;;;16.00;64.20;;;;;;5043758;28;20056;-71
2021/12/30 13:10:53;;;;;;;3.90;1.40;;;16.10;64.90;;;;;;5050433;28;20044;-72
2021/12/30 13:13:31;;;;;;;3.08;1.40;;;16.00;57.50;;;;;;5050588;28;20135;-72